Time;durP1;ratioP1;P1;durP2;ratioP2;P2;SDS_P1;SDS_P2;PMS_P1;PMS_P2;Temp;Humidity;BMP_temperature;BMP_pressure;BME280_temperature;BME280_humidity;BME280_pressure;Samples;Min_cycle;Max_cycle;Signal;HPM_P1;HPM_P2
2022/06/04 00:02:04;;;;;;;8.43;5.90;;;;;;;13.97;100.00;98478.59;5051639;28;20049;-72
2022/06/04 00:04:30;;;;;;;9.00;6.15;;;;;;;13.99;100.00;98476.78;5048677;28;20025;-72
2022/06/04 00:06:55;;;;;;;11.77;6.18;;;;;;;13.84;100.00;98482.59;5049271;28;20127;-72
2022/06/04 00:09:27;;;;;;;13.15;6.20;;;;;;;13.71;100.00;98476.88;5067154;28;20027;-71
2022/06/04 00:17:22;;;;;;;7.90;5.60;;;;;;;13.76;100.00;98474.09;5066761;28;20027;-72
2022/06/04 00:19:48;;;;;;;10.73;5.80;;;;;;;13.80;100.00;98470.41;5064148;28;20100;-72
2022/06/04 00:22:14;;;;;;;9.95;5.78;;;;;;;13.82;100.00;98479.13;5047185;28;20029;-71
2022/06/04 00:24:44;;;;;;;9.60;5.82;;;;;;;13.79;100.00;98474.81;5047123;28;20029;-72
2022/06/04 00:27:15;;;;;;;9.07;6.18;;;;;;;13.84;100.00;98472.03;5047207;28;20032;-72
2022/06/04 00:29:41;;;;;;;15.07;5.57;;;;;;;13.83;100.00;98478.22;5048099;28;20225;-72
2022/06/04 00:32:06;;;;;;;9.45;6.05;;;;;;;13.87;100.00;98477.19;5066522;28;20032;-71
2022/06/04 00:34:32;;;;;;;20.80;5.93;;;;;;;13.78;100.00;98473.09;5065293;28;20024;-71
2022/06/04 00:36:58;;;;;;;10.77;6.15;;;;;;;13.70;100.00;98479.56;5066133;28;20029;-72
2022/06/04 00:39:24;;;;;;;13.20;6.28;;;;;;;13.77;100.00;98481.09;5066363;28;20024;-72
2022/06/04 00:42:07;;;;;;;9.50;6.50;;;;;;;13.78;100.00;98474.88;5057893;28;20344;-71
2022/06/04 00:45:08;;;;;;;15.38;6.50;;;;;;;13.81;100.00;98473.00;5046860;28;20025;-71
2022/06/04 00:47:36;;;;;;;11.27;6.22;;;;;;;13.78;100.00;98472.22;5060415;28;20103;-72
2022/06/04 00:50:04;;;;;;;8.15;5.53;;;;;;;13.83;100.00;98475.59;5049200;28;20045;-72
2022/06/04 00:52:29;;;;;;;9.55;4.90;;;;;;;13.79;100.00;98473.97;5060307;28;20249;-72
2022/06/04 00:54:57;;;;;;;10.15;6.18;;;;;;;13.76;100.00;98468.78;5065772;28;20059;-72
2022/06/04 00:57:52;;;;;;;6.28;4.97;;;;;;;13.61;100.00;98478.13;5065959;28;20037;-72
2022/06/04 01:00:26;;;;;;;8.07;5.53;;;;;;;13.58;100.00;98478.22;5037021;28;20252;-71
2022/06/04 01:03:10;;;;;;;8.82;5.63;;;;;;;13.53;100.00;98471.31;5047569;28;20025;-72
2022/06/04 01:06:03;;;;;;;12.63;6.05;;;;;;;13.51;100.00;98459.97;5058617;28;20036;-72
2022/06/04 01:08:46;;;;;;;8.45;6.05;;;;;;;13.52;100.00;98459.03;5065569;28;20023;-71
2022/06/04 01:11:11;;;;;;;10.82;6.38;;;;;;;13.44;100.00;98456.63;5065841;28;20048;-72
2022/06/04 01:13:40;;;;;;;9.85;6.50;;;;;;;13.37;100.00;98448.97;5053639;28;20343;-72
2022/06/04 01:16:20;;;;;;;11.00;5.97;;;;;;;13.32;100.00;98445.63;5046310;28;20036;-72
2022/06/04 01:18:51;;;;;;;8.50;5.78;;;;;;;13.39;100.00;98448.03;5045616;28;20313;-72
2022/06/04 01:22:02;;;;;;;9.77;6.07;;;;;;;13.45;100.00;98449.59;5045895;28;20028;-72
2022/06/04 01:24:57;;;;;;;7.55;5.55;;;;;;;13.47;100.00;98450.38;5050443;28;20036;-72
2022/06/04 01:27:39;;;;;;;8.00;5.57;;;;;;;13.53;100.00;98455.47;5047226;28;20037;-71
2022/06/04 01:30:16;;;;;;;12.85;5.93;;;;;;;13.55;100.00;98456.28;5046055;28;20021;-71
2022/06/04 01:32:49;;;;;;;9.25;5.93;;;;;;;13.55;100.00;98458.94;5055791;28;20032;-72
2022/06/04 01:35:34;;;;;;;13.60;6.43;;;;;;;13.28;100.00;98454.53;5049579;28;20024;-71
2022/06/04 01:38:08;;;;;;;14.70;6.55;;;;;;;13.11;100.00;98451.59;5058768;28;20040;-72
2022/06/04 01:43:26;;;;;;;12.07;6.70;;;;;;;13.29;100.00;98466.88;5045662;28;20033;-72
2022/06/04 01:45:55;;;;;;;7.97;5.85;;;;;;;13.32;100.00;98461.50;5048238;28;20280;-72
2022/06/04 01:48:23;;;;;;;12.75;5.97;;;;;;;13.40;100.00;98464.72;5045640;28;20021;-72
2022/06/04 01:50:54;;;;;;;8.07;6.07;;;;;;;13.38;100.00;98477.16;5045559;28;20045;-72
2022/06/04 01:53:22;;;;;;;7.35;5.18;;;;;;;13.37;100.00;98470.97;5046719;28;20018;-72
2022/06/04 01:55:51;;;;;;;11.55;6.47;;;;;;;13.32;100.00;98472.06;5053601;28;20025;-72
2022/06/04 01:58:21;;;;;;;9.43;6.65;;;;;;;13.41;100.00;98471.75;5062016;28;20038;-72
2022/06/04 02:00:56;;;;;;;7.80;6.13;;;;;;;13.30;100.00;98473.88;5045406;28;20112;-71
2022/06/04 02:04:06;;;;;;;9.45;5.53;;;;;;;13.43;100.00;98469.91;5063368;28;20118;-71
2022/06/04 02:06:40;;;;;;;9.27;5.65;;;;;;;13.42;100.00;98460.25;5043481;28;20079;-71
2022/06/04 02:09:11;;;;;;;8.48;5.10;;;;;;;13.41;100.00;98450.63;5043596;28;20344;-72
2022/06/04 02:11:39;;;;;;;13.65;6.53;;;;;;;13.44;100.00;98434.66;5043482;28;20056;-72
2022/06/04 02:14:07;;;;;;;7.95;5.47;;;;;;;13.44;100.00;98445.22;5043431;28;20132;-72
2022/06/04 02:16:36;;;;;;;7.05;4.75;;;;;;;13.48;100.00;98430.97;5043374;28;20036;-72
2022/06/04 02:19:03;;;;;;;9.75;5.88;;;;;;;13.47;100.00;98429.22;5043305;28;20040;-72
2022/06/04 02:21:29;;;;;;;9.60;6.15;;;;;;;13.33;100.00;98428.84;5042628;28;20427;-72
2022/06/04 02:23:55;;;;;;;9.40;6.45;;;;;;;13.19;100.00;98425.81;5042571;28;20041;-72
2022/06/04 02:26:23;;;;;;;11.10;6.35;;;;;;;13.16;100.00;98423.25;5042399;28;20189;-72
2022/06/04 02:28:50;;;;;;;8.52;5.50;;;;;;;13.20;100.00;98424.88;5042678;28;20377;-72
2022/06/04 02:31:46;;;;;;;9.75;6.20;;;;;;;13.25;100.00;98422.97;5040034;28;20281;-72
2022/06/04 02:34:57;;;;;;;9.10;6.05;;;;;;;13.28;100.00;98418.41;5023311;28;20436;-72
2022/06/04 02:37:58;;;;;;;8.38;5.60;;;;;;;13.31;100.00;98417.44;5042283;28;20063;-72
2022/06/04 02:40:33;;;;;;;10.32;6.43;;;;;;;13.13;100.00;98426.84;5042487;28;20052;-72
2022/06/04 02:43:29;;;;;;;10.57;6.85;;;;;;;13.26;100.00;98425.56;5045735;28;20344;-72
2022/06/04 02:46:28;;;;;;;8.05;5.25;;;;;;;13.30;100.00;98421.00;5052160;28;20049;-72
2022/06/04 02:49:01;;;;;;;8.90;5.95;;;;;;;13.17;100.00;98428.50;5059372;28;20033;-72
2022/06/04 02:51:35;;;;;;;7.80;5.15;;;;;;;13.17;100.00;98422.34;5053734;28;20175;-72
2022/06/04 02:54:10;;;;;;;10.43;6.85;;;;;;;13.18;100.00;98416.13;5058940;28;20385;-72
2022/06/04 02:56:40;;;;;;;9.75;6.43;;;;;;;13.17;100.00;98419.69;5052404;28;20093;-72
2022/06/04 02:59:08;;;;;;;9.52;6.32;;;;;;;13.22;100.00;98420.41;5063635;28;20028;-72
2022/06/04 03:01:39;;;;;;;10.73;6.85;;;;;;;13.24;100.00;98419.44;5063644;28;20029;-72
2022/06/04 03:04:06;;;;;;;8.32;5.53;;;;;;;13.31;100.00;98414.81;5044611;28;20034;-72
2022/06/04 03:06:32;;;;;;;9.60;6.75;;;;;;;13.35;100.00;98419.09;5057927;28;20332;-72
2022/06/04 03:09:00;;;;;;;10.02;6.13;;;;;;;13.40;100.00;98430.34;5063410;28;20059;-72
2022/06/04 03:11:26;;;;;;;13.07;6.70;;;;;;;13.39;100.00;98442.72;5063566;28;20021;-72
2022/06/04 03:13:51;;;;;;;31.30;6.47;;;;;;;13.30;100.00;98447.44;5047286;28;20026;-72
2022/06/04 03:16:17;;;;;;;9.68;6.25;;;;;;;13.19;100.00;98444.31;5061325;28;20092;-72
2022/06/04 03:18:43;;;;;;;9.10;6.30;;;;;;;13.09;100.00;98432.31;5063440;28;20021;-72
2022/06/04 03:21:09;;;;;;;8.18;5.85;;;;;;;13.09;100.00;98437.59;5048795;28;20024;-72
2022/06/04 03:23:34;;;;;;;9.15;6.05;;;;;;;13.00;100.00;98436.97;5044840;28;20029;-72
2022/06/04 03:26:00;;;;;;;8.63;5.97;;;;;;;12.98;100.00;98441.38;5058201;28;20027;-72
2022/06/04 03:28:25;;;;;;;9.35;6.03;;;;;;;13.00;100.00;98431.69;5043996;28;20022;-72
2022/06/04 03:30:51;;;;;;;12.10;7.00;;;;;;;13.06;100.00;98437.69;5043877;28;20028;-72
2022/06/04 03:33:16;;;;;;;8.73;5.57;;;;;;;13.07;100.00;98439.41;5044161;28;20021;-72
2022/06/04 03:35:43;;;;;;;9.68;6.47;;;;;;;13.17;100.00;98451.41;5061694;28;20205;-72
2022/06/04 03:38:09;;;;;;;10.25;6.65;;;;;;;13.23;100.00;98467.06;5063368;28;20090;-72
2022/06/04 03:40:35;;;;;;;9.60;5.75;;;;;;;13.30;100.00;98468.59;5062752;28;20247;-72
2022/06/04 03:43:00;;;;;;;10.95;5.80;;;;;;;13.36;100.00;98473.69;5064116;28;20052;-72
2022/06/04 03:45:26;;;;;;;9.32;5.50;;;;;;;13.38;100.00;98471.84;5060451;28;20068;-72
2022/06/04 03:47:53;;;;;;;8.52;5.22;;;;;;;13.32;100.00;98466.78;5047939;28;20321;-72
2022/06/04 03:50:19;;;;;;;9.10;6.03;;;;;;;13.32;100.00;98469.41;5064470;28;20104;-72
2022/06/04 03:52:46;;;;;;;11.65;6.32;;;;;;;13.35;100.00;98477.25;5067259;28;20055;-72
2022/06/04 03:55:14;;;;;;;12.13;6.63;;;;;;;13.38;100.00;98477.16;5060398;28;20025;-72
2022/06/04 03:57:45;;;;;;;11.82;7.43;;;;;;;13.32;100.00;98487.91;5047668;28;20056;-72
2022/06/04 04:00:19;;;;;;;13.53;7.37;;;;;;;13.37;100.00;98496.53;5047808;28;20067;-72
2022/06/04 04:02:53;;;;;;;9.88;6.47;;;;;;;13.47;100.00;98498.84;5048823;28;20033;-72
2022/06/04 04:05:25;;;;;;;10.93;6.55;;;;;;;13.40;100.00;98485.88;5065562;28;20025;-72
2022/06/04 04:07:52;;;;;;;9.98;6.30;;;;;;;13.54;100.00;98488.94;5066709;28;20024;-72
2022/06/04 04:10:18;;;;;;;11.02;5.72;;;;;;;13.70;100.00;98490.16;5055805;28;20230;-72
2022/06/04 04:12:44;;;;;;;9.48;6.55;;;;;;;13.73;100.00;98484.75;5047419;28;20028;-72
2022/06/04 04:15:11;;;;;;;11.05;6.40;;;;;;;13.86;100.00;98496.66;5057331;28;20029;-72
2022/06/04 04:17:39;;;;;;;8.52;6.05;;;;;;;13.95;100.00;98506.91;5061719;28;20401;-72
2022/06/04 04:20:09;;;;;;;12.55;6.10;;;;;;;13.99;100.00;98516.47;5047270;28;20028;-72
2022/06/04 04:22:35;;;;;;;8.90;6.28;;;;;;;13.98;100.00;98510.31;5047200;28;20066;-72
2022/06/04 04:25:01;;;;;;;9.13;6.70;;;;;;;13.94;100.00;98507.81;5047120;28;20025;-72
2022/06/04 04:27:26;;;;;;;8.45;5.85;;;;;;;13.99;100.00;98509.38;5047094;28;20024;-72
2022/06/04 04:29:52;;;;;;;12.25;7.07;;;;;;;14.09;100.00;98517.88;5047121;28;20218;-72
2022/06/04 04:32:17;;;;;;;9.50;6.85;;;;;;;14.13;100.00;98512.41;5053648;28;20044;-72
2022/06/04 04:34:42;;;;;;;9.60;6.53;;;;;;;14.02;100.00;98508.44;5066059;28;20044;-72
2022/06/04 04:37:08;;;;;;;9.32;6.93;;;;;;;13.96;100.00;98500.69;5066027;28;20028;-72
2022/06/04 04:39:33;;;;;;;10.32;6.80;;;;;;;13.90;100.00;98509.72;5065934;28;20043;-72
2022/06/04 04:41:59;;;;;;;9.45;6.47;;;;;;;14.01;100.00;98512.84;5053163;28;20025;-72
2022/06/04 04:44:24;;;;;;;9.57;6.40;;;;;;;13.99;100.00;98513.81;5045452;28;20029;-72
2022/06/04 04:46:50;;;;;;;7.82;5.90;;;;;;;13.95;100.00;98512.22;5047312;28;20025;-71
2022/06/04 04:49:16;;;;;;;9.73;6.20;;;;;;;14.03;100.00;98520.72;5055594;28;20033;-72
2022/06/04 04:51:42;;;;;;;11.05;5.70;;;;;;;14.04;100.00;98517.16;5045776;28;20095;-72
2022/06/04 04:54:07;;;;;;;9.50;6.20;;;;;;;14.10;100.00;98517.81;5045381;28;20028;-72
2022/06/04 04:56:32;;;;;;;8.73;6.18;;;;;;;14.08;100.00;98524.09;5045273;28;20026;-72
2022/06/04 04:58:58;;;;;;;7.28;5.57;;;;;;;14.07;100.00;98523.22;5045653;28;20021;-72
2022/06/04 05:01:26;;;;;;;8.15;5.78;;;;;;;14.09;100.00;98512.59;5045611;28;20021;-71
2022/06/04 05:03:53;;;;;;;7.40;5.63;;;;;;;14.03;100.00;98516.31;5052057;28;20332;-72
2022/06/04 05:06:20;;;;;;;9.05;6.30;;;;;;;14.08;100.00;98518.81;5065423;28;20028;-72
2022/06/04 05:08:47;;;;;;;9.27;6.53;;;;;;;14.17;100.00;98514.03;5051514;28;20025;-72
2022/06/04 05:11:18;;;;;;;9.30;5.55;;;;;;;14.32;100.00;98507.34;5044983;28;20049;-72
2022/06/04 05:13:49;;;;;;;7.10;5.15;;;;;;;14.43;100.00;98510.50;5045398;28;20025;-72
2022/06/04 05:16:19;;;;;;;9.55;5.60;;;;;;;14.57;100.00;98524.09;5045313;28;20067;-72
2022/06/04 05:18:45;;;;;;;9.65;6.25;;;;;;;14.58;100.00;98523.16;5045286;28;20025;-72
2022/06/04 05:21:22;;;;;;;11.65;6.53;;;;;;;14.56;100.00;98538.25;5045240;28;20025;-72
2022/06/04 05:23:48;;;;;;;7.70;4.78;;;;;;;14.67;100.00;98541.34;5044710;28;20028;-72
2022/06/04 05:26:14;;;;;;;6.72;5.05;;;;;;;14.77;100.00;98553.34;5045347;28;20029;-72
2022/06/04 05:28:40;;;;;;;9.07;5.57;;;;;;;14.87;100.00;98554.72;5045091;28;20017;-72
2022/06/04 05:31:05;;;;;;;9.70;5.85;;;;;;;14.92;100.00;98564.25;5045024;28;20225;-71
2022/06/04 05:33:31;;;;;;;6.55;4.97;;;;;;;14.97;100.00;98564.09;5045675;28;20355;-72
2022/06/04 05:35:56;;;;;;;7.60;4.68;;;;;;;14.95;100.00;98564.13;5044573;28;20029;-71
2022/06/04 05:38:22;;;;;;;12.52;5.93;;;;;;;14.87;100.00;98575.91;5044939;28;20296;-72
2022/06/04 05:40:47;;;;;;;10.90;6.85;;;;;;;14.88;100.00;98575.03;5044894;28;20025;-72
2022/06/04 05:43:12;;;;;;;7.95;5.55;;;;;;;14.94;100.00;98564.19;5046849;28;20025;-72
2022/06/04 05:45:38;;;;;;;8.05;5.35;;;;;;;15.02;100.00;98562.09;5054110;28;20057;-72
2022/06/04 05:48:04;;;;;;;10.35;5.68;;;;;;;14.97;100.00;98556.13;5044748;28;20371;-72
2022/06/04 05:50:29;;;;;;;8.70;5.72;;;;;;;15.00;100.00;98553.38;5044106;28;20071;-72
2022/06/04 05:52:55;;;;;;;9.50;6.43;;;;;;;15.03;100.00;98555.91;5044635;28;20025;-72
2022/06/04 05:55:22;;;;;;;8.88;6.35;;;;;;;15.09;100.00;98553.84;5050192;28;20139;-72
2022/06/04 05:57:47;;;;;;;10.80;6.50;;;;;;;15.14;100.00;98553.69;5063714;28;20083;-72
2022/06/04 06:00:13;;;;;;;8.82;6.38;;;;;;;15.15;100.00;98555.41;5063909;28;20305;-72
2022/06/04 06:02:39;;;;;;;8.63;6.45;;;;;;;15.30;100.00;98554.81;5063387;28;20029;-72
2022/06/04 06:05:05;;;;;;;9.23;6.40;;;;;;;15.36;100.00;98559.00;5046169;28;20048;-72
2022/06/04 06:07:32;;;;;;;8.02;5.93;;;;;;;15.45;100.00;98548.94;5044289;28;20274;-72
2022/06/04 06:09:57;;;;;;;7.85;5.75;;;;;;;15.51;100.00;98543.41;5044332;28;20040;-72
2022/06/04 06:12:22;;;;;;;12.85;6.65;;;;;;;15.59;100.00;98533.31;5047487;28;20025;-72
2022/06/04 06:14:48;;;;;;;7.80;6.05;;;;;;;15.70;100.00;98530.22;5056844;28;20059;-72
2022/06/04 06:17:13;;;;;;;10.00;6.47;;;;;;;15.88;100.00;98529.47;5044204;28;20321;-71
2022/06/04 06:19:39;;;;;;;8.57;6.38;;;;;;;16.02;100.00;98533.28;5044170;28;20035;-71
2022/06/04 06:22:04;;;;;;;8.23;6.45;;;;;;;16.07;100.00;98544.53;5055893;28;20021;-71
2022/06/04 06:24:30;;;;;;;10.48;6.95;;;;;;;16.06;100.00;98536.63;5056578;28;20120;-72
2022/06/04 06:26:58;;;;;;;8.73;6.72;;;;;;;16.11;100.00;98540.81;5045309;28;20104;-72
2022/06/04 06:29:27;;;;;;;12.00;6.40;;;;;;;16.19;100.00;98544.03;5062960;28;20029;-72
2022/06/04 06:31:54;;;;;;;10.00;6.57;;;;;;;16.29;100.00;98550.66;5054599;28;20025;-72
2022/06/04 06:34:21;;;;;;;9.88;6.38;;;;;;;16.44;100.00;98544.72;5054261;28;20021;-71
2022/06/04 06:36:47;;;;;;;11.07;6.07;;;;;;;16.37;100.00;98543.22;5043819;28;20017;-72
2022/06/04 06:39:13;;;;;;;7.38;5.82;;;;;;;16.42;100.00;98541.22;5058535;28;20033;-72
2022/06/04 06:41:39;;;;;;;13.23;7.43;;;;;;;16.38;100.00;98542.28;5062464;28;20078;-72
2022/06/04 06:44:05;;;;;;;9.00;6.93;;;;;;;16.37;100.00;98545.88;5056737;28;20375;-72
2022/06/04 06:46:39;;;;;;;12.23;7.05;;;;;;;16.47;100.00;98549.91;5043629;28;20025;-72
2022/06/04 06:49:08;;;;;;;17.50;7.30;;;;;;;16.55;100.00;98553.06;5044038;28;20317;-71
2022/06/04 06:51:35;;;;;;;10.63;7.13;;;;;;;16.64;100.00;98546.47;5058842;28;20108;-72
2022/06/04 06:54:01;;;;;;;9.02;7.00;;;;;;;16.80;100.00;98548.38;5043116;28;20032;-72
2022/06/04 06:56:30;;;;;;;10.55;7.68;;;;;;;16.97;100.00;98543.16;5053787;28;20052;-72
2022/06/04 06:58:57;;;;;;;10.30;7.55;;;;;;;17.10;100.00;98552.28;5057028;28;20071;-72
2022/06/04 07:01:24;;;;;;;12.95;7.55;;;;;;;17.20;100.00;98556.25;5056907;28;20025;-72
2022/06/04 07:03:50;;;;;;;9.25;5.70;;;;;;;17.37;100.00;98559.91;5062598;28;20033;-72
2022/06/04 07:06:27;;;;;;;11.10;7.55;;;;;;;17.51;100.00;98552.16;5052388;28;20389;-72
2022/06/04 07:08:53;;;;;;;9.10;7.13;;;;;;;17.56;100.00;98550.13;5042884;28;20021;-71
2022/06/04 07:11:18;;;;;;;9.15;7.05;;;;;;;17.62;100.00;98555.16;5043275;28;20035;-71
2022/06/04 07:13:44;;;;;;;10.45;7.20;;;;;;;17.71;100.00;98560.03;5043235;28;20025;-71
2022/06/04 07:16:10;;;;;;;9.80;7.75;;;;;;;17.76;100.00;98560.66;5052022;28;20087;-71
2022/06/04 07:18:35;;;;;;;12.00;7.97;;;;;;;17.82;100.00;98574.56;5062572;28;20095;-71
2022/06/04 07:21:04;;;;;;;10.60;7.30;;;;;;;17.88;100.00;98573.38;5058939;28;20044;-71
2022/06/04 07:23:33;;;;;;;13.18;7.80;;;;;;;17.93;100.00;98572.22;5043051;28;20026;-71
2022/06/04 07:26:00;;;;;;;8.70;6.75;;;;;;;17.98;100.00;98579.97;5043044;28;20036;-71
2022/06/04 07:28:25;;;;;;;11.75;5.82;;;;;;;17.98;99.30;98577.31;5053685;28;20332;-71
2022/06/04 07:30:50;;;;;;;7.82;6.03;;;;;;;18.07;99.69;98585.69;5062949;28;20084;-71
2022/06/04 07:33:16;;;;;;;9.63;6.15;;;;;;;18.15;100.00;98593.31;5063214;28;20329;-71
2022/06/04 07:35:49;;;;;;;9.00;7.22;;;;;;;18.20;100.00;98588.63;5063906;28;20035;-71
2022/06/04 07:38:15;;;;;;;10.55;7.13;;;;;;;18.19;100.00;98589.56;5063791;28;20073;-71
2022/06/04 07:40:40;;;;;;;10.55;7.00;;;;;;;18.19;100.00;98592.22;5063662;28;20214;-71
2022/06/04 07:43:06;;;;;;;14.25;7.85;;;;;;;18.27;100.00;98609.56;5044145;28;20052;-71
2022/06/04 07:45:33;;;;;;;9.18;7.15;;;;;;;18.33;100.00;98601.25;5043754;28;20229;-71
2022/06/04 07:48:00;;;;;;;11.50;7.97;;;;;;;18.33;100.00;98603.03;5043811;28;20025;-71
2022/06/04 07:50:25;;;;;;;8.32;6.30;;;;;;;18.39;100.00;98605.44;5044595;28;20060;-71
2022/06/04 07:52:51;;;;;;;10.50;7.55;;;;;;;18.42;99.97;98615.94;5052483;28;20067;-71
2022/06/04 07:55:16;;;;;;;13.23;6.85;;;;;;;18.53;98.07;98610.91;5043695;28;20217;-71
2022/06/04 07:57:42;;;;;;;10.38;7.22;;;;;;;18.77;98.74;98609.66;5043797;28;20056;-71
2022/06/04 08:00:09;;;;;;;10.55;8.10;;;;;;;18.87;100.00;98610.88;5043669;28;20093;-71
2022/06/04 08:02:34;;;;;;;14.30;7.97;;;;;;;18.86;99.40;98609.16;5043513;28;20083;-71
2022/06/04 08:05:00;;;;;;;8.88;7.07;;;;;;;18.93;99.12;98602.56;5043507;28;20202;-71
2022/06/04 08:07:25;;;;;;;12.18;8.68;;;;;;;18.93;98.28;98599.91;5042413;28;20022;-71
2022/06/04 08:09:53;;;;;;;12.18;7.80;;;;;;;19.03;97.93;98595.78;5043822;28;20022;-71
2022/06/04 08:12:18;;;;;;;9.60;7.82;;;;;;;19.07;97.63;98605.34;5043510;28;20025;-71
2022/06/04 08:14:46;;;;;;;14.00;8.15;;;;;;;19.29;98.34;98599.75;5043577;28;20313;-71
2022/06/04 08:17:12;;;;;;;11.38;8.00;;;;;;;19.39;97.36;98603.66;5043803;28;20033;-71
2022/06/04 08:19:39;;;;;;;12.65;8.40;;;;;;;19.43;98.32;98605.19;5043761;28;20032;-71
2022/06/04 08:22:06;;;;;;;11.90;8.20;;;;;;;19.46;99.73;98611.22;5043466;28;20025;-71
2022/06/04 08:24:32;;;;;;;10.40;8.20;;;;;;;19.47;98.73;98596.94;5043395;28;20029;-71
2022/06/04 08:26:59;;;;;;;8.98;7.40;;;;;;;19.53;96.62;98599.25;5043415;28;20047;-71
2022/06/04 08:29:27;;;;;;;11.38;8.75;;;;;;;19.54;97.59;98597.44;5045410;28;20025;-71
2022/06/04 08:31:52;;;;;;;12.60;8.68;;;;;;;19.54;97.13;98608.97;5047092;28;20032;-71
2022/06/04 08:34:18;;;;;;;10.02;8.35;;;;;;;19.61;97.06;98610.34;5047062;28;20021;-71
2022/06/04 08:36:43;;;;;;;12.40;8.75;;;;;;;19.68;96.52;98609.06;5047020;28;20021;-71
2022/06/04 08:39:09;;;;;;;11.00;7.93;;;;;;;19.75;96.96;98618.47;5046982;28;20029;-71
2022/06/04 08:42:00;;;;;;;14.85;8.93;;;;;;;19.87;98.38;98617.75;5046924;28;20021;-71
2022/06/04 08:44:31;;;;;;;11.32;8.60;;;;;;;19.93;98.28;98617.41;5046855;28;20021;-71
2022/06/04 08:47:14;;;;;;;10.95;8.30;;;;;;;19.96;96.55;98616.41;5046868;28;20041;-71
2022/06/04 08:49:46;;;;;;;12.80;8.73;;;;;;;19.96;96.25;98619.91;5046581;28;20280;-71
2022/06/04 08:52:24;;;;;;;12.02;8.43;;;;;;;19.89;95.84;98621.22;5046743;28;20021;-71
2022/06/04 08:57:59;;;;;;;15.10;8.10;;;;;;;19.90;94.90;98612.25;5046624;28;20052;-71
2022/06/04 09:00:38;;;;;;;9.52;7.20;;;;;;;19.86;94.93;98621.38;5045547;28;20253;-71
2022/06/04 09:03:19;;;;;;;11.57;8.85;;;;;;;19.83;96.48;98624.22;5046440;28;20028;-71
2022/06/04 09:06:06;;;;;;;10.23;7.90;;;;;;;19.81;95.88;98618.13;5049065;28;20021;-71
2022/06/04 09:08:54;;;;;;;13.30;8.80;;;;;;;19.74;97.30;98624.75;5046676;28;20021;-71
2022/06/04 09:11:54;;;;;;;11.70;8.25;;;;;;;19.71;96.68;98629.41;5046401;28;20021;-71
2022/06/04 09:14:30;;;;;;;10.85;8.85;;;;;;;19.75;96.72;98623.81;5046308;28;20025;-71
2022/06/04 09:17:06;;;;;;;10.02;8.55;;;;;;;19.85;97.54;98634.84;5046549;28;20258;-71
2022/06/04 09:19:37;;;;;;;12.05;9.13;;;;;;;19.94;95.67;98635.19;5046288;28;20029;-71
2022/06/04 09:22:15;;;;;;;12.45;8.80;;;;;;;19.92;93.72;98634.41;5046107;28;20049;-71
2022/06/04 09:24:40;;;;;;;12.25;9.43;;;;;;;19.88;94.44;98630.19;5046047;28;20060;-71
2022/06/04 09:27:23;;;;;;;13.15;9.13;;;;;;;20.02;95.99;98638.28;5046106;28;20309;-71
2022/06/04 09:29:55;;;;;;;9.77;8.07;;;;;;;20.12;94.57;98647.50;5046255;28;20022;-71
2022/06/04 09:32:44;;;;;;;12.02;8.43;;;;;;;20.19;95.23;98662.25;5046005;28;20021;-71
2022/06/04 09:35:17;;;;;;;10.88;7.60;;;;;;;20.23;93.09;98679.84;5045961;28;20021;-71
2022/06/04 09:37:48;;;;;;;12.68;9.50;;;;;;;20.31;95.52;98682.94;5045876;28;20325;-71
2022/06/04 09:40:30;;;;;;;11.63;8.95;;;;;;;20.34;95.84;98692.59;5044714;28;20025;-71
2022/06/04 09:43:14;;;;;;;9.55;6.50;;;;;;;20.36;92.98;98691.56;5045858;28;20029;-71
2022/06/04 09:45:41;;;;;;;12.40;8.38;;;;;;;20.28;91.98;98699.13;5045689;28;20034;-71
2022/06/04 09:48:20;;;;;;;10.60;7.30;;;;;;;20.26;91.79;98695.72;5045651;28;20116;-71
2022/06/04 09:50:56;;;;;;;12.70;8.77;;;;;;;20.30;93.47;98705.28;5045548;28;20060;-71
2022/06/04 09:53:26;;;;;;;9.90;7.53;;;;;;;20.40;92.71;98702.91;5044442;28;20194;-71
2022/06/04 09:56:07;;;;;;;9.40;7.60;;;;;;;20.36;91.65;98699.56;5045801;28;20317;-72
2022/06/04 09:58:37;;;;;;;10.83;8.67;;;;;;;20.42;92.30;98701.91;5045509;28;20128;-71
2022/06/04 10:01:14;;;;;;;11.07;9.30;;;;;;;20.43;92.70;98708.97;5045442;28;20246;-71
2022/06/04 10:03:40;;;;;;;14.32;10.15;;;;;;;20.38;91.49;98705.69;5045252;28;20285;-71
2022/06/04 10:06:07;;;;;;;11.63;8.25;;;;;;;20.45;93.64;98708.88;5045321;28;20021;-71
2022/06/04 10:11:21;;;;;;;15.75;9.52;;;;;;;20.44;92.85;98704.50;5045274;28;20332;-71
2022/06/04 10:13:52;;;;;;;12.90;9.25;;;;;;;20.55;92.61;98702.03;5045275;28;20022;-71
2022/06/04 10:16:26;;;;;;;14.13;8.48;;;;;;;20.65;91.35;98696.06;5045189;28;20323;-71
2022/06/04 10:19:01;;;;;;;11.13;8.18;;;;;;;20.58;91.56;98700.06;5045176;28;20025;-71
2022/06/04 10:21:31;;;;;;;14.95;8.98;;;;;;;20.48;90.90;98696.19;5045050;28;20049;-71
2022/06/04 10:23:59;;;;;;;12.40;8.32;;;;;;;20.58;91.32;98700.06;5044882;28;20033;-71
2022/06/04 10:26:47;;;;;;;12.02;8.57;;;;;;;20.60;91.65;98695.47;5044949;28;20076;-71
2022/06/04 10:29:35;;;;;;;14.55;9.25;;;;;;;20.60;90.97;98683.91;5044917;28;20021;-71
2022/06/04 10:32:29;;;;;;;10.77;7.32;;;;;;;20.77;90.72;98681.97;5044876;28;20026;-71
2022/06/04 10:35:19;;;;;;;8.50;6.82;;;;;;;21.01;90.00;98679.69;5044836;28;20021;-71
2022/06/04 10:38:04;;;;;;;12.20;7.10;;;;;;;21.14;86.79;98672.63;5044707;28;20033;-71
2022/06/04 10:40:47;;;;;;;11.77;7.60;;;;;;;21.29;86.44;98667.19;5044731;28;20025;-72
2022/06/04 10:43:18;;;;;;;10.82;7.10;;;;;;;21.55;88.59;98675.41;5044627;28;20032;-72
2022/06/04 10:45:51;;;;;;;9.70;7.55;;;;;;;21.56;85.26;98669.09;5044551;28;20021;-71
2022/06/04 10:48:31;;;;;;;9.70;7.30;;;;;;;21.89;82.79;98675.88;5044550;28;20371;-71
2022/06/04 10:54:02;;;;;;;7.88;5.82;;;;;;;23.14;78.77;98675.50;5044470;28;20255;-71
2022/06/04 10:56:36;;;;;;;6.90;4.97;;;;;;;23.80;72.82;98669.91;5044665;28;20152;-71
2022/06/04 10:59:08;;;;;;;11.30;5.00;;;;;;;24.48;70.87;98674.66;5044440;28;20021;-71
2022/06/04 11:01:43;;;;;;;8.45;4.85;;;;;;;24.94;69.32;98664.88;5044277;28;20032;-71
2022/06/04 11:04:22;;;;;;;8.73;4.97;;;;;;;25.29;70.69;98662.13;5044230;28;20051;-72
2022/06/04 11:06:58;;;;;;;7.20;4.57;;;;;;;25.67;70.52;98656.41;5044248;28;20124;-72
2022/06/04 11:09:40;;;;;;;6.25;3.75;;;;;;;25.91;65.74;98654.47;5044226;28;20067;-72
2022/06/04 11:12:23;;;;;;;7.15;4.00;;;;;;;26.03;66.01;98664.25;5044277;28;20048;-71
2022/06/04 11:14:55;;;;;;;6.40;4.00;;;;;;;26.37;67.68;98660.53;5044217;28;20025;-71
2022/06/04 11:17:24;;;;;;;3.63;3.03;;;;;;;26.29;63.60;98652.22;5044090;28;20036;-72
2022/06/04 11:20:03;;;;;;;3.78;3.08;;;;;;;26.13;63.05;98647.22;5044124;28;20028;-72
2022/06/04 11:22:38;;;;;;;5.93;3.72;;;;;;;25.62;68.79;98647.84;5044325;28;20309;-72
2022/06/04 11:25:24;;;;;;;5.30;3.55;;;;;;;25.07;67.33;98652.16;5050032;28;20089;-72
2022/06/04 11:27:53;;;;;;;5.05;3.78;;;;;;;24.71;67.65;98638.81;5061249;28;20055;-72
2022/06/04 11:30:28;;;;;;;4.47;3.38;;;;;;;24.84;68.63;98639.59;5055368;28;20093;-71
2022/06/04 11:33:08;;;;;;;4.63;3.10;;;;;;;24.83;69.78;98637.88;5045906;28;20021;-71
2022/06/04 11:35:33;;;;;;;4.28;3.15;;;;;;;24.61;70.98;98637.78;5045007;28;20052;-71
2022/06/04 11:38:35;;;;;;;3.90;2.70;;;;;;;24.19;68.82;98629.38;5043913;28;20021;-71
2022/06/04 11:41:07;;;;;;;7.20;3.60;;;;;;;24.16;70.27;98630.47;5050947;28;20088;-71
2022/06/04 11:43:56;;;;;;;4.75;2.92;;;;;;;23.99;70.16;98632.69;5053833;28;20040;-72
2022/06/04 11:46:45;;;;;;;6.28;3.33;;;;;;;23.88;71.45;98625.34;5052168;28;20041;-72
2022/06/04 11:49:16;;;;;;;4.05;2.70;;;;;;;23.52;68.95;98622.66;5048472;28;20336;-72
2022/06/04 11:51:44;;;;;;;6.95;3.47;;;;;;;23.44;72.08;98630.38;5044006;28;20034;-72
2022/06/04 11:54:21;;;;;;;4.60;3.40;;;;;;;23.42;71.86;98624.28;5052178;28;20029;-71
2022/06/04 11:57:17;;;;;;;8.32;4.57;;;;;;;23.25;71.04;98614.72;5050032;28;20040;-71
2022/06/04 12:00:16;;;;;;;6.95;3.58;;;;;;;23.44;71.87;98619.63;5055969;28;20236;-71
2022/06/04 12:02:51;;;;;;;4.07;3.47;;;;;;;23.37;71.80;98623.72;5057179;28;20024;-71